createdAt,value
2022-09-05T00:03:47.271Z,1013.4
2022-09-05T00:08:49.419Z,1013.4
2022-09-05T00:13:47.718Z,1013.2
2022-09-05T00:24:20.153Z,1013.1
2022-09-05T00:24:28.940Z,1013.0
2022-09-05T00:28:48.879Z,1012.6
2022-09-05T00:33:49.359Z,1012.5
2022-09-05T00:38:49.605Z,1012.7
2022-09-05T00:48:50.369Z,1012.6
2022-09-05T00:53:50.759Z,1012.4
2022-09-05T00:58:51.181Z,1012.6
2022-09-05T01:03:51.509Z,1012.9
2022-09-05T01:08:51.832Z,1013.0
2022-09-05T01:18:52.456Z,1013.4
2022-09-05T01:23:52.847Z,1013.3
2022-09-05T01:29:18.402Z,1013.5
2022-09-05T01:33:53.465Z,1013.5
2022-09-05T01:39:49.202Z,1013.7
2022-09-05T01:48:54.324Z,1013.8
2022-09-05T01:53:54.605Z,1013.8
2022-09-05T01:58:57.096Z,1013.8
2022-09-05T02:03:55.150Z,1013.9
2022-09-05T02:08:55.486Z,1014.0
2022-09-05T02:13:55.830Z,1014.0
2022-09-05T02:18:56.106Z,1014.1
2022-09-05T02:23:56.423Z,1014.1
2022-09-05T02:28:56.694Z,1014.2
2022-09-05T02:34:02.011Z,1014.2
2022-09-05T02:45:06.971Z,1014.3
2022-09-05T02:45:08.811Z,1014.3
2022-09-05T02:48:57.907Z,1014.2
2022-09-05T02:57:37.620Z,1014.2
2022-09-05T02:59:09.611Z,1014.2
2022-09-05T03:03:58.787Z,1014.2
2022-09-05T03:09:08.077Z,1014.3
2022-09-05T03:14:03.353Z,1014.2
2022-09-05T03:18:59.778Z,1014.3
2022-09-05T03:23:59.856Z,1014.4
2022-09-05T03:29:00.184Z,1014.4
2022-09-05T03:34:00.497Z,1014.3
2022-09-05T03:44:01.040Z,1014.2
2022-09-05T03:49:04.146Z,1014.2
2022-09-05T03:57:12.921Z,1014.1
2022-09-05T03:59:02.067Z,1014.1
2022-09-05T04:08:08.102Z,1014.1
2022-09-05T04:09:02.520Z,1014.1
2022-09-05T04:14:05.175Z,1014.2
2022-09-05T04:19:05.432Z,1014.2
2022-09-05T04:24:03.242Z,1014.3
2022-09-05T04:29:03.533Z,1014.4
2022-09-05T04:39:06.571Z,1014.5
2022-09-05T04:44:04.410Z,1014.5
2022-09-05T04:49:04.687Z,1014.5
2022-09-05T04:54:04.971Z,1014.4
2022-09-05T05:05:30.723Z,1014.6
2022-09-05T05:09:05.695Z,1014.6
2022-09-05T05:18:01.653Z,1014.6
2022-09-05T05:19:18.775Z,1014.7
2022-09-05T05:24:06.499Z,1014.8
2022-09-05T05:29:06.725Z,1014.9
2022-09-05T05:34:23.748Z,1014.9
2022-09-05T05:39:07.145Z,1015.0
2022-09-05T05:44:07.373Z,1015.0
2022-09-05T05:49:07.751Z,1015.0
2022-09-05T05:59:08.072Z,1015.1
2022-09-05T06:04:08.328Z,1015.1
2022-09-05T06:13:43.060Z,1015.2
2022-09-05T06:15:09.098Z,1015.2
2022-09-05T06:19:09.047Z,1015.2
2022-09-05T06:24:09.193Z,1015.4
2022-09-05T06:34:27.255Z,1015.4
2022-09-05T06:39:09.909Z,1015.4
2022-09-05T06:44:10.133Z,1015.4
2022-09-05T06:49:30.983Z,1015.4
2022-09-05T06:54:10.908Z,1015.4
2022-09-05T06:59:11.015Z,1015.5
2022-09-05T07:04:49.304Z,1015.5
2022-09-05T07:09:11.761Z,1015.6
2022-09-05T07:14:12.163Z,1015.6
2022-09-05T07:19:12.473Z,1015.6
2022-09-05T07:24:13.221Z,1015.7
2022-09-05T07:29:13.236Z,1015.8
2022-09-05T07:34:20.843Z,1015.8
2022-09-05T07:39:28.417Z,1015.8
2022-09-05T07:44:14.390Z,1015.8
2022-09-05T07:49:16.776Z,1015.7
2022-09-05T07:56:59.244Z,1015.8
2022-09-05T07:59:15.529Z,1015.9
2022-09-05T08:04:15.949Z,1015.9
2022-09-05T08:10:05.844Z,1015.8
2022-09-05T08:14:43.663Z,1015.9
2022-09-05T08:19:17.176Z,1016.0
2022-09-05T08:24:17.663Z,1016.2
2022-09-05T08:29:20.179Z,1016.2
2022-09-05T08:34:18.611Z,1016.2
2022-09-05T08:39:19.018Z,1016.2
2022-09-05T08:46:42.800Z,1016.2
2022-09-05T08:54:20.399Z,1016.0
2022-09-05T08:59:32.457Z,1016.0
2022-09-05T09:09:21.751Z,1015.9
2022-09-05T09:14:30.641Z,1015.8
2022-09-05T09:19:29.308Z,1015.8
2022-09-05T09:24:23.270Z,1015.9
2022-09-05T09:34:26.271Z,1015.9
2022-09-05T09:39:38.470Z,1016.0
2022-09-05T09:44:25.233Z,1016.0
2022-09-05T09:49:28.216Z,1015.9
2022-09-05T09:54:26.182Z,1015.9
2022-09-05T10:10:32.888Z,1015.9
2022-09-05T10:10:50.964Z,1015.9
2022-09-05T10:14:49.420Z,1015.9
2022-09-05T10:24:30.534Z,1015.9
2022-09-05T10:29:37.771Z,1016.0
2022-09-05T10:35:09.571Z,1015.9
2022-09-05T10:39:31.149Z,1015.9
2022-09-05T10:44:31.605Z,1016.0
2022-09-05T10:49:32.073Z,1016.0
2022-09-05T10:54:32.524Z,1015.9
2022-09-05T11:02:18.961Z,1015.9
2022-09-05T11:04:37.148Z,1016.0
2022-09-05T11:09:33.899Z,1016.0
2022-09-05T11:14:34.317Z,1016.1
2022-09-05T11:19:34.683Z,1016.1
2022-09-05T11:24:35.183Z,1016.0
2022-09-05T11:29:35.637Z,1015.9
2022-09-05T11:39:48.425Z,1015.9
2022-09-05T11:40:06.903Z,1015.8
2022-09-05T11:44:37.043Z,1015.8
2022-09-05T11:49:37.507Z,1015.8
2022-09-05T11:54:37.971Z,1015.9
2022-09-05T11:59:38.392Z,1016.0
2022-09-05T12:04:39.005Z,1016.1
2022-09-05T12:09:39.279Z,1015.8
2022-09-05T12:14:49.333Z,1015.9
2022-09-05T12:19:40.175Z,1015.9
2022-09-05T12:25:25.239Z,1015.9
2022-09-05T12:29:48.651Z,1015.8
2022-09-05T12:36:08.896Z,1015.8
2022-09-05T12:41:36.240Z,1015.6
2022-09-05T12:49:47.348Z,1015.5
2022-09-05T12:54:43.353Z,1015.5
2022-09-05T13:03:01.530Z,1015.5
2022-09-05T13:04:50.127Z,1015.4
2022-09-05T13:11:24.145Z,1015.3
2022-09-05T13:15:02.618Z,1015.3
2022-09-05T13:19:46.305Z,1015.3
2022-09-05T13:24:46.747Z,1015.2
2022-09-05T13:30:29.771Z,1015.2
2022-09-05T13:37:59.202Z,1015.1
2022-09-05T13:39:48.990Z,1015.0
2022-09-05T13:49:50.058Z,1015.0
2022-09-05T13:54:51.595Z,1015.0
2022-09-05T13:59:51.271Z,1015.0
2022-09-05T14:05:11.310Z,1014.8
2022-09-05T14:09:52.418Z,1014.7
2022-09-05T14:19:53.618Z,1014.3
2022-09-05T14:29:54.962Z,1014.3
2022-09-05T14:37:51.225Z,1014.3
2022-09-05T14:39:56.199Z,1014.3
2022-09-05T14:49:57.407Z,1014.1
2022-09-05T14:55:22.317Z,1014.2
2022-09-05T15:02:48.383Z,1014.2
2022-09-05T15:12:15.725Z,1014.1
2022-09-05T15:15:00.302Z,1014.1
2022-09-05T15:20:05.623Z,1014.1
2022-09-05T15:25:16.965Z,1014.0
2022-09-05T15:30:02.114Z,1014.0
2022-09-05T15:35:05.240Z,1013.9
2022-09-05T15:40:03.465Z,1013.8
2022-09-05T15:45:10.206Z,1013.8
2022-09-05T15:50:04.677Z,1013.8
2022-09-05T15:55:05.329Z,1013.6
2022-09-05T16:00:05.959Z,1013.6
2022-09-05T16:10:31.697Z,1013.6
2022-09-05T16:10:37.268Z,1013.4
2022-09-05T16:16:20.123Z,1013.4
2022-09-05T16:23:34.524Z,1013.4
2022-09-05T16:25:09.079Z,1013.4
2022-09-05T16:35:10.221Z,1013.2
2022-09-05T16:40:10.833Z,1013.2
2022-09-05T16:45:11.397Z,1013.2
2022-09-05T16:50:16.828Z,1013.3
2022-09-05T16:55:12.588Z,1013.3
2022-09-05T17:00:13.220Z,1013.4
2022-09-05T17:05:13.771Z,1013.3
2022-09-05T17:10:16.808Z,1013.3
2022-09-05T17:15:14.815Z,1013.2
2022-09-05T17:20:15.354Z,1013.2
2022-09-05T17:29:30.091Z,1013.0
2022-09-05T17:31:46.222Z,1013.1
2022-09-05T17:35:18.459Z,1013.0
2022-09-05T17:40:17.435Z,1012.9
2022-09-05T17:45:17.833Z,1012.9
2022-09-05T17:50:18.362Z,1012.8
2022-09-05T18:00:19.189Z,1012.9
2022-09-05T18:05:21.650Z,1013.0
2022-09-05T18:10:27.560Z,1013.0
2022-09-05T18:15:20.514Z,1012.7
2022-09-05T18:20:20.972Z,1012.7
2022-09-05T18:25:30.647Z,1012.6
2022-09-05T18:30:21.864Z,1012.5
2022-09-05T18:35:26.603Z,1012.3
2022-09-05T18:40:36.923Z,1012.3
2022-09-05T18:45:28.738Z,1012.3
2022-09-05T18:50:26.523Z,1012.2
2022-09-05T18:55:33.976Z,1012.1
2022-09-05T19:00:24.472Z,1012.2
2022-09-05T19:05:28.610Z,1012.2
2022-09-05T19:10:35.395Z,1012.3
2022-09-05T19:15:25.831Z,1012.5
2022-09-05T19:20:32.202Z,1012.9
2022-09-05T19:25:26.572Z,1013.7
2022-09-05T19:37:07.567Z,1013.5
2022-09-05T19:37:07.776Z,1013.8
2022-09-05T19:46:50.723Z,1014.1
2022-09-05T19:47:39.631Z,1014.3
2022-09-05T19:50:28.509Z,1014.3
2022-09-05T19:55:28.793Z,1014.4
2022-09-05T20:00:29.189Z,1014.4
2022-09-05T20:05:29.436Z,1014.5
2022-09-05T20:10:29.712Z,1014.5
2022-09-05T20:15:35.826Z,1014.5
2022-09-05T20:20:30.311Z,1014.5
2022-09-05T20:25:35.264Z,1014.2
2022-09-05T20:30:30.866Z,1014.3
2022-09-05T20:41:06.914Z,1014.5
2022-09-05T20:43:20.649Z,1014.1
2022-09-05T20:45:31.777Z,1013.9
2022-09-05T20:54:14.299Z,1014.0
2022-09-05T20:55:40.334Z,1013.7
2022-09-05T21:00:32.721Z,1013.8
2022-09-05T21:05:33.036Z,1014.0
2022-09-05T21:10:33.394Z,1013.7
2022-09-05T21:20:33.898Z,1013.3
2022-09-05T21:25:44.072Z,1013.1
2022-09-05T21:30:34.766Z,1013.1
2022-09-05T21:35:35.716Z,1013.1
2022-09-05T21:40:35.089Z,1012.9
2022-09-05T21:47:40.085Z,1012.9
2022-09-05T21:50:35.645Z,1012.8
2022-09-05T21:59:20.005Z,1012.8
2022-09-05T22:00:36.141Z,1012.7
2022-09-05T22:10:51.624Z,1012.8
2022-09-05T22:15:37.182Z,1012.7
2022-09-05T22:20:37.311Z,1012.7
2022-09-05T22:25:37.611Z,1012.5
2022-09-05T22:30:37.932Z,1012.6
2022-09-05T22:40:38.521Z,1012.6
2022-09-05T22:45:38.820Z,1012.5
2022-09-05T22:50:39.124Z,1012.5
2022-09-05T22:55:39.421Z,1012.5
2022-09-05T23:00:39.720Z,1012.5
2022-09-05T23:10:40.256Z,1012.4
2022-09-05T23:15:43.101Z,1012.4
2022-09-05T23:20:40.813Z,1012.4
2022-09-05T23:25:41.113Z,1012.4
2022-09-05T23:30:41.446Z,1012.4
2022-09-05T23:35:41.711Z,1012.3
2022-09-05T23:50:42.518Z,1012.3
2022-09-05T23:55:42.806Z,1012.3
